sensor_id;sensor_type;location;lat;lon;timestamp;temperature;humidity
15455;DHT22;21057;51.024;7.540;2024-03-02T00:01:44;7.70;99.90
15455;DHT22;21057;51.024;7.540;2024-03-02T00:04:11;7.60;99.90
15455;DHT22;21057;51.024;7.540;2024-03-02T00:06:39;7.60;99.90
15455;DHT22;21057;51.024;7.540;2024-03-02T00:09:09;7.60;99.90
15455;DHT22;21057;51.024;7.540;2024-03-02T00:11:37;7.50;99.90
15455;DHT22;21057;51.024;7.540;2024-03-02T00:14:05;7.60;99.90
15455;DHT22;21057;51.024;7.540;2024-03-02T00:16:32;7.50;99.90
15455;DHT22;21057;51.024;7.540;2024-03-02T00:19:01;7.70;99.90
15455;DHT22;21057;51.024;7.540;2024-03-02T00:21:30;7.40;99.90
15455;DHT22;21057;51.024;7.540;2024-03-02T00:23:59;7.70;99.90
15455;DHT22;21057;51.024;7.540;2024-03-02T00:26:28;7.60;99.90
15455;DHT22;21057;51.024;7.540;2024-03-02T00:28:56;7.60;99.90
15455;DHT22;21057;51.024;7.540;2024-03-02T00:31:23;7.50;99.90
15455;DHT22;21057;51.024;7.540;2024-03-02T00:33:50;7.50;99.90
15455;DHT22;21057;51.024;7.540;2024-03-02T00:36:24;7.60;99.90
15455;DHT22;21057;51.024;7.540;2024-03-02T00:38:52;7.70;99.90
15455;DHT22;21057;51.024;7.540;2024-03-02T00:41:21;7.80;99.90
15455;DHT22;21057;51.024;7.540;2024-03-02T00:43:56;7.90;99.90
15455;DHT22;21057;51.024;7.540;2024-03-02T00:46:24;8.00;99.90
15455;DHT22;21057;51.024;7.540;2024-03-02T00:48:53;7.90;99.90
15455;DHT22;21057;51.024;7.540;2024-03-02T00:51:21;7.90;99.90
15455;DHT22;21057;51.024;7.540;2024-03-02T00:53:48;8.00;99.90
15455;DHT22;21057;51.024;7.540;2024-03-02T00:56:16;8.00;99.90
15455;DHT22;21057;51.024;7.540;2024-03-02T00:58:45;8.00;99.90
15455;DHT22;21057;51.024;7.540;2024-03-02T01:01:11;8.00;99.90
15455;DHT22;21057;51.024;7.540;2024-03-02T01:03:39;8.00;99.90
15455;DHT22;21057;51.024;7.540;2024-03-02T01:06:07;8.10;99.90
15455;DHT22;21057;51.024;7.540;2024-03-02T01:08:34;8.00;99.90
15455;DHT22;21057;51.024;7.540;2024-03-02T01:11:01;8.00;99.90
15455;DHT22;21057;51.024;7.540;2024-03-02T01:13:28;8.00;99.90
15455;DHT22;21057;51.024;7.540;2024-03-02T01:15:56;8.10;99.90
15455;DHT22;21057;51.024;7.540;2024-03-02T01:18:23;8.10;99.90
15455;DHT22;21057;51.024;7.540;2024-03-02T01:20:50;8.00;99.90
15455;DHT22;21057;51.024;7.540;2024-03-02T01:23:18;7.90;99.90
15455;DHT22;21057;51.024;7.540;2024-03-02T01:25:45;7.80;99.90
15455;DHT22;21057;51.024;7.540;2024-03-02T01:28:12;7.70;99.90
15455;DHT22;21057;51.024;7.540;2024-03-02T01:30:39;7.90;99.90
15455;DHT22;21057;51.024;7.540;2024-03-02T01:33:07;7.80;99.90
15455;DHT22;21057;51.024;7.540;2024-03-02T01:35:34;7.70;99.90
15455;DHT22;21057;51.024;7.540;2024-03-02T01:38:02;7.70;99.90
15455;DHT22;21057;51.024;7.540;2024-03-02T01:40:29;7.70;99.90
15455;DHT22;21057;51.024;7.540;2024-03-02T01:42:56;7.60;99.90
15455;DHT22;21057;51.024;7.540;2024-03-02T01:45:24;7.50;99.90
15455;DHT22;21057;51.024;7.540;2024-03-02T01:47:51;7.60;99.90
15455;DHT22;21057;51.024;7.540;2024-03-02T01:50:26;7.70;99.90
15455;DHT22;21057;51.024;7.540;2024-03-02T01:52:54;7.70;99.90
15455;DHT22;21057;51.024;7.540;2024-03-02T01:55:21;7.90;99.90
15455;DHT22;21057;51.024;7.540;2024-03-02T01:57:48;7.90;99.90
15455;DHT22;21057;51.024;7.540;2024-03-02T02:00:16;8.00;99.90
15455;DHT22;21057;51.024;7.540;2024-03-02T02:02:44;7.70;99.90
15455;DHT22;21057;51.024;7.540;2024-03-02T02:05:11;7.70;99.90
15455;DHT22;21057;51.024;7.540;2024-03-02T02:07:40;7.70;99.90
15455;DHT22;21057;51.024;7.540;2024-03-02T02:10:07;7.70;99.90
15455;DHT22;21057;51.024;7.540;2024-03-02T02:12:35;7.70;99.90
15455;DHT22;21057;51.024;7.540;2024-03-02T02:15:02;7.80;99.90
15455;DHT22;21057;51.024;7.540;2024-03-02T02:17:29;7.70;99.90
15455;DHT22;21057;51.024;7.540;2024-03-02T02:19:56;7.70;99.90
15455;DHT22;21057;51.024;7.540;2024-03-02T02:22:24;7.80;99.90
15455;DHT22;21057;51.024;7.540;2024-03-02T02:24:51;7.80;99.90
15455;DHT22;21057;51.024;7.540;2024-03-02T02:27:17;7.60;99.90
15455;DHT22;21057;51.024;7.540;2024-03-02T02:29:44;7.60;99.90
15455;DHT22;21057;51.024;7.540;2024-03-02T02:32:11;7.80;99.90
15455;DHT22;21057;51.024;7.540;2024-03-02T02:34:38;7.70;99.90
15455;DHT22;21057;51.024;7.540;2024-03-02T02:37:05;7.70;99.90
15455;DHT22;21057;51.024;7.540;2024-03-02T02:39:33;7.70;99.90
15455;DHT22;21057;51.024;7.540;2024-03-02T02:42:00;7.80;99.90
15455;DHT22;21057;51.024;7.540;2024-03-02T02:44:28;7.80;99.90
15455;DHT22;21057;51.024;7.540;2024-03-02T02:46:55;7.80;99.90
15455;DHT22;21057;51.024;7.540;2024-03-02T02:49:21;7.80;99.90
15455;DHT22;21057;51.024;7.540;2024-03-02T02:51:48;7.70;99.90
15455;DHT22;21057;51.024;7.540;2024-03-02T02:54:15;7.70;99.90
15455;DHT22;21057;51.024;7.540;2024-03-02T02:56:43;7.70;99.90
15455;DHT22;21057;51.024;7.540;2024-03-02T02:59:10;7.70;99.90
15455;DHT22;21057;51.024;7.540;2024-03-02T03:01:37;7.80;99.90
15455;DHT22;21057;51.024;7.540;2024-03-02T03:04:04;7.70;99.90
15455;DHT22;21057;51.024;7.540;2024-03-02T03:06:31;7.70;99.90
15455;DHT22;21057;51.024;7.540;2024-03-02T03:08:57;7.70;99.90
15455;DHT22;21057;51.024;7.540;2024-03-02T03:11:24;7.90;99.90
15455;DHT22;21057;51.024;7.540;2024-03-02T03:13:53;7.80;99.90
15455;DHT22;21057;51.024;7.540;2024-03-02T03:16:20;7.60;99.90
15455;DHT22;21057;51.024;7.540;2024-03-02T03:18:47;7.60;99.90
15455;DHT22;21057;51.024;7.540;2024-03-02T03:21:16;7.50;99.90
15455;DHT22;21057;51.024;7.540;2024-03-02T03:23:43;7.50;99.90
15455;DHT22;21057;51.024;7.540;2024-03-02T03:26:10;7.60;99.90
15455;DHT22;21057;51.024;7.540;2024-03-02T03:28:37;7.50;99.90
15455;DHT22;21057;51.024;7.540;2024-03-02T03:31:05;7.70;99.90
15455;DHT22;21057;51.024;7.540;2024-03-02T03:33:32;7.70;99.90
15455;DHT22;21057;51.024;7.540;2024-03-02T03:36:00;7.80;99.90
15455;DHT22;21057;51.024;7.540;2024-03-02T03:38:28;7.70;99.90
15455;DHT22;21057;51.024;7.540;2024-03-02T03:40:55;7.60;99.90
15455;DHT22;21057;51.024;7.540;2024-03-02T03:43:22;7.60;99.90
15455;DHT22;21057;51.024;7.540;2024-03-02T03:45:49;7.70;99.90
15455;DHT22;21057;51.024;7.540;2024-03-02T03:48:17;7.80;99.90
15455;DHT22;21057;51.024;7.540;2024-03-02T03:50:44;7.70;99.90
15455;DHT22;21057;51.024;7.540;2024-03-02T03:53:11;7.50;99.90
15455;DHT22;21057;51.024;7.540;2024-03-02T03:55:38;7.40;99.90
15455;DHT22;21057;51.024;7.540;2024-03-02T03:58:05;7.60;99.90
15455;DHT22;21057;51.024;7.540;2024-03-02T04:00:32;7.80;99.90
15455;DHT22;21057;51.024;7.540;2024-03-02T04:02:58;7.70;99.90
15455;DHT22;21057;51.024;7.540;2024-03-02T04:05:26;7.50;99.90
15455;DHT22;21057;51.024;7.540;2024-03-02T04:07:53;7.50;99.90
15455;DHT22;21057;51.024;7.540;2024-03-02T04:10:20;7.60;99.90
15455;DHT22;21057;51.024;7.540;2024-03-02T04:12:48;7.70;99.90
15455;DHT22;21057;51.024;7.540;2024-03-02T04:15:16;7.80;99.90
15455;DHT22;21057;51.024;7.540;2024-03-02T04:17:44;7.70;99.90
15455;DHT22;21057;51.024;7.540;2024-03-02T04:20:11;7.80;99.90
15455;DHT22;21057;51.024;7.540;2024-03-02T04:22:40;7.80;99.90
15455;DHT22;21057;51.024;7.540;2024-03-02T04:25:08;7.90;99.90
15455;DHT22;21057;51.024;7.540;2024-03-02T04:27:36;8.00;99.90
15455;DHT22;21057;51.024;7.540;2024-03-02T04:30:04;8.00;99.90
15455;DHT22;21057;51.024;7.540;2024-03-02T04:32:32;8.10;99.90
15455;DHT22;21057;51.024;7.540;2024-03-02T04:34:59;7.90;99.90
15455;DHT22;21057;51.024;7.540;2024-03-02T04:37:25;8.10;99.90
15455;DHT22;21057;51.024;7.540;2024-03-02T04:39:53;8.10;99.90
15455;DHT22;21057;51.024;7.540;2024-03-02T04:42:20;8.00;99.90
15455;DHT22;21057;51.024;7.540;2024-03-02T04:44:48;8.10;99.90
15455;DHT22;21057;51.024;7.540;2024-03-02T04:47:14;8.10;99.90
15455;DHT22;21057;51.024;7.540;2024-03-02T04:49:41;8.20;99.90
15455;DHT22;21057;51.024;7.540;2024-03-02T04:52:08;8.20;99.90
15455;DHT22;21057;51.024;7.540;2024-03-02T04:54:35;8.10;99.90
15455;DHT22;21057;51.024;7.540;2024-03-02T04:57:24;8.10;99.90
15455;DHT22;21057;51.024;7.540;2024-03-02T04:59:51;7.90;99.90
15455;DHT22;21057;51.024;7.540;2024-03-02T05:02:18;8.00;99.90
15455;DHT22;21057;51.024;7.540;2024-03-02T05:04:44;7.80;99.90
15455;DHT22;21057;51.024;7.540;2024-03-02T05:07:11;7.80;99.90
15455;DHT22;21057;51.024;7.540;2024-03-02T05:09:38;7.80;99.90
15455;DHT22;21057;51.024;7.540;2024-03-02T05:12:06;7.80;99.90
15455;DHT22;21057;51.024;7.540;2024-03-02T05:15:07;7.80;99.90
15455;DHT22;21057;51.024;7.540;2024-03-02T05:17:35;7.80;99.90
15455;DHT22;21057;51.024;7.540;2024-03-02T05:20:03;7.60;99.90
15455;DHT22;21057;51.024;7.540;2024-03-02T05:22:30;7.60;99.90
15455;DHT22;21057;51.024;7.540;2024-03-02T05:24:57;7.70;99.90
15455;DHT22;21057;51.024;7.540;2024-03-02T05:27:24;7.70;99.90
15455;DHT22;21057;51.024;7.540;2024-03-02T05:29:51;7.80;99.90
15455;DHT22;21057;51.024;7.540;2024-03-02T05:32:19;7.70;99.90
15455;DHT22;21057;51.024;7.540;2024-03-02T05:34:46;7.90;99.90
15455;DHT22;21057;51.024;7.540;2024-03-02T05:37:13;8.00;99.90
15455;DHT22;21057;51.024;7.540;2024-03-02T05:39:40;8.00;99.90
15455;DHT22;21057;51.024;7.540;2024-03-02T05:42:06;7.90;99.90
15455;DHT22;21057;51.024;7.540;2024-03-02T05:44:34;8.00;99.90
15455;DHT22;21057;51.024;7.540;2024-03-02T05:47:01;8.00;99.90
15455;DHT22;21057;51.024;7.540;2024-03-02T05:49:29;8.10;99.90
15455;DHT22;21057;51.024;7.540;2024-03-02T05:51:56;8.10;99.90
15455;DHT22;21057;51.024;7.540;2024-03-02T05:54:23;8.00;99.90
15455;DHT22;21057;51.024;7.540;2024-03-02T05:56:50;8.20;99.90
15455;DHT22;21057;51.024;7.540;2024-03-02T05:59:16;8.10;99.90
15455;DHT22;21057;51.024;7.540;2024-03-02T06:01:45;7.90;99.90
15455;DHT22;21057;51.024;7.540;2024-03-02T06:04:12;8.00;99.90
15455;DHT22;21057;51.024;7.540;2024-03-02T06:06:40;8.10;99.90
15455;DHT22;21057;51.024;7.540;2024-03-02T06:09:07;8.10;99.90
15455;DHT22;21057;51.024;7.540;2024-03-02T06:11:34;8.10;99.90
15455;DHT22;21057;51.024;7.540;2024-03-02T06:14:02;8.10;99.90
15455;DHT22;21057;51.024;7.540;2024-03-02T06:16:29;7.90;99.90
15455;DHT22;21057;51.024;7.540;2024-03-02T06:18:57;7.80;99.90
15455;DHT22;21057;51.024;7.540;2024-03-02T06:21:24;7.80;99.90
15455;DHT22;21057;51.024;7.540;2024-03-02T06:23:52;7.70;99.90
15455;DHT22;21057;51.024;7.540;2024-03-02T06:26:19;7.70;99.90
15455;DHT22;21057;51.024;7.540;2024-03-02T06:28:47;7.60;99.90
15455;DHT22;21057;51.024;7.540;2024-03-02T06:31:13;7.40;99.90
15455;DHT22;21057;51.024;7.540;2024-03-02T06:33:40;7.30;99.90
15455;DHT22;21057;51.024;7.540;2024-03-02T06:36:07;7.40;99.90
15455;DHT22;21057;51.024;7.540;2024-03-02T06:38:35;7.60;99.90
15455;DHT22;21057;51.024;7.540;2024-03-02T06:41:03;7.60;99.90
15455;DHT22;21057;51.024;7.540;2024-03-02T06:43:30;7.40;99.90
15455;DHT22;21057;51.024;7.540;2024-03-02T06:45:57;7.40;99.90
15455;DHT22;21057;51.024;7.540;2024-03-02T06:48:23;7.30;99.90
15455;DHT22;21057;51.024;7.540;2024-03-02T06:50:50;7.30;99.90
15455;DHT22;21057;51.024;7.540;2024-03-02T06:53:17;7.30;99.90
15455;DHT22;21057;51.024;7.540;2024-03-02T06:55:45;7.50;99.90
15455;DHT22;21057;51.024;7.540;2024-03-02T06:58:14;7.50;99.90
15455;DHT22;21057;51.024;7.540;2024-03-02T07:00:42;7.50;99.90
15455;DHT22;21057;51.024;7.540;2024-03-02T07:03:09;7.70;99.90
15455;DHT22;21057;51.024;7.540;2024-03-02T07:05:36;7.70;99.90
15455;DHT22;21057;51.024;7.540;2024-03-02T07:08:03;7.70;99.90
15455;DHT22;21057;51.024;7.540;2024-03-02T07:10:31;7.90;99.90
15455;DHT22;21057;51.024;7.540;2024-03-02T07:12:58;7.90;99.90
15455;DHT22;21057;51.024;7.540;2024-03-02T07:15:26;8.10;99.90
15455;DHT22;21057;51.024;7.540;2024-03-02T07:18:12;8.10;99.90
15455;DHT22;21057;51.024;7.540;2024-03-02T07:20:39;8.10;99.90
15455;DHT22;21057;51.024;7.540;2024-03-02T07:23:06;8.20;99.90
15455;DHT22;21057;51.024;7.540;2024-03-02T07:25:33;8.30;99.90
15455;DHT22;21057;51.024;7.540;2024-03-02T07:27:59;8.40;99.90
15455;DHT22;21057;51.024;7.540;2024-03-02T07:30:28;8.60;99.90
15455;DHT22;21057;51.024;7.540;2024-03-02T07:32:54;8.50;99.90
15455;DHT22;21057;51.024;7.540;2024-03-02T07:35:21;8.70;99.90
15455;DHT22;21057;51.024;7.540;2024-03-02T07:37:52;8.80;99.90
15455;DHT22;21057;51.024;7.540;2024-03-02T07:40:19;8.90;99.90
15455;DHT22;21057;51.024;7.540;2024-03-02T07:42:45;8.90;99.90
15455;DHT22;21057;51.024;7.540;2024-03-02T07:45:12;8.80;99.90
15455;DHT22;21057;51.024;7.540;2024-03-02T07:47:41;9.00;99.90
15455;DHT22;21057;51.024;7.540;2024-03-02T07:50:08;9.10;99.90
15455;DHT22;21057;51.024;7.540;2024-03-02T07:52:35;9.10;99.90
15455;DHT22;21057;51.024;7.540;2024-03-02T07:55:02;9.10;99.90
15455;DHT22;21057;51.024;7.540;2024-03-02T07:57:28;9.20;99.90
15455;DHT22;21057;51.024;7.540;2024-03-02T07:59:55;9.20;99.90
15455;DHT22;21057;51.024;7.540;2024-03-02T08:02:22;9.20;99.90
15455;DHT22;21057;51.024;7.540;2024-03-02T08:04:50;9.20;99.90
15455;DHT22;21057;51.024;7.540;2024-03-02T08:07:17;9.20;99.90
15455;DHT22;21057;51.024;7.540;2024-03-02T08:09:44;9.10;99.90
15455;DHT22;21057;51.024;7.540;2024-03-02T08:12:11;9.00;99.90
15455;DHT22;21057;51.024;7.540;2024-03-02T08:14:38;9.00;99.90
15455;DHT22;21057;51.024;7.540;2024-03-02T08:17:05;9.10;99.90
15455;DHT22;21057;51.024;7.540;2024-03-02T08:19:35;9.20;99.90
15455;DHT22;21057;51.024;7.540;2024-03-02T08:22:03;9.40;99.90
15455;DHT22;21057;51.024;7.540;2024-03-02T08:24:30;9.30;99.90
15455;DHT22;21057;51.024;7.540;2024-03-02T08:26:58;9.50;99.90
15455;DHT22;21057;51.024;7.540;2024-03-02T08:29:25;9.60;99.90
15455;DHT22;21057;51.024;7.540;2024-03-02T08:31:52;9.60;99.90
15455;DHT22;21057;51.024;7.540;2024-03-02T08:34:19;9.60;99.90
15455;DHT22;21057;51.024;7.540;2024-03-02T08:36:46;9.70;99.90
15455;DHT22;21057;51.024;7.540;2024-03-02T08:39:14;10.00;99.90
15455;DHT22;21057;51.024;7.540;2024-03-02T08:41:41;10.10;99.90
15455;DHT22;21057;51.024;7.540;2024-03-02T08:44:09;10.10;99.90
15455;DHT22;21057;51.024;7.540;2024-03-02T08:46:36;9.90;99.90
15455;DHT22;21057;51.024;7.540;2024-03-02T08:49:02;9.80;99.90
15455;DHT22;21057;51.024;7.540;2024-03-02T08:51:29;9.90;99.90
15455;DHT22;21057;51.024;7.540;2024-03-02T08:53:57;10.10;99.90
15455;DHT22;21057;51.024;7.540;2024-03-02T08:56:25;10.10;99.90
15455;DHT22;21057;51.024;7.540;2024-03-02T08:58:52;10.10;99.90
15455;DHT22;21057;51.024;7.540;2024-03-02T09:01:19;10.10;99.90
15455;DHT22;21057;51.024;7.540;2024-03-02T09:03:46;10.20;99.90
15455;DHT22;21057;51.024;7.540;2024-03-02T09:06:14;10.10;99.90
15455;DHT22;21057;51.024;7.540;2024-03-02T09:08:42;10.00;99.90
15455;DHT22;21057;51.024;7.540;2024-03-02T09:11:10;10.10;99.90
15455;DHT22;21057;51.024;7.540;2024-03-02T09:13:38;10.30;99.90
15455;DHT22;21057;51.024;7.540;2024-03-02T09:16:05;10.30;99.90
15455;DHT22;21057;51.024;7.540;2024-03-02T09:18:36;10.20;99.90
15455;DHT22;21057;51.024;7.540;2024-03-02T09:21:03;10.50;99.90
15455;DHT22;21057;51.024;7.540;2024-03-02T09:23:30;10.60;99.90
15455;DHT22;21057;51.024;7.540;2024-03-02T09:25:57;10.90;99.90
15455;DHT22;21057;51.024;7.540;2024-03-02T09:28:24;10.80;99.90
15455;DHT22;21057;51.024;7.540;2024-03-02T09:30:52;10.90;99.90
15455;DHT22;21057;51.024;7.540;2024-03-02T09:33:19;10.90;99.90
15455;DHT22;21057;51.024;7.540;2024-03-02T09:35:45;11.00;99.90
15455;DHT22;21057;51.024;7.540;2024-03-02T09:38:14;11.30;99.90
15455;DHT22;21057;51.024;7.540;2024-03-02T09:40:41;11.50;99.90
15455;DHT22;21057;51.024;7.540;2024-03-02T09:43:09;11.50;99.90
15455;DHT22;21057;51.024;7.540;2024-03-02T09:45:36;11.20;99.90
15455;DHT22;21057;51.024;7.540;2024-03-02T09:48:05;11.40;99.90
15455;DHT22;21057;51.024;7.540;2024-03-02T09:50:32;11.70;99.90
15455;DHT22;21057;51.024;7.540;2024-03-02T09:52:59;12.00;99.90
15455;DHT22;21057;51.024;7.540;2024-03-02T09:55:26;12.20;99.90
15455;DHT22;21057;51.024;7.540;2024-03-02T09:57:53;12.40;99.90
15455;DHT22;21057;51.024;7.540;2024-03-02T10:00:20;13.00;99.90
15455;DHT22;21057;51.024;7.540;2024-03-02T10:02:47;13.70;99.90
15455;DHT22;21057;51.024;7.540;2024-03-02T10:05:23;14.60;99.90
15455;DHT22;21057;51.024;7.540;2024-03-02T10:07:58;15.60;99.90
15455;DHT22;21057;51.024;7.540;2024-03-02T10:10:34;15.80;99.90
15455;DHT22;21057;51.024;7.540;2024-03-02T10:13:04;16.20;99.40
15455;DHT22;21057;51.024;7.540;2024-03-02T10:15:31;16.40;99.30
15455;DHT22;21057;51.024;7.540;2024-03-02T10:17:58;17.10;98.80
15455;DHT22;21057;51.024;7.540;2024-03-02T10:20:27;17.80;97.40
15455;DHT22;21057;51.024;7.540;2024-03-02T10:22:54;17.70;96.60
15455;DHT22;21057;51.024;7.540;2024-03-02T10:25:31;18.40;95.20
15455;DHT22;21057;51.024;7.540;2024-03-02T10:27:59;18.30;94.90
15455;DHT22;21057;51.024;7.540;2024-03-02T10:30:26;18.30;95.60
15455;DHT22;21057;51.024;7.540;2024-03-02T10:32:53;18.20;94.30
15455;DHT22;21057;51.024;7.540;2024-03-02T10:35:21;18.20;95.00
15455;DHT22;21057;51.024;7.540;2024-03-02T10:37:50;18.40;94.60
15455;DHT22;21057;51.024;7.540;2024-03-02T10:40:18;18.50;94.70
15455;DHT22;21057;51.024;7.540;2024-03-02T10:42:48;18.70;93.10
15455;DHT22;21057;51.024;7.540;2024-03-02T10:45:16;18.80;93.80
15455;DHT22;21057;51.024;7.540;2024-03-02T10:47:43;18.40;93.60
15455;DHT22;21057;51.024;7.540;2024-03-02T10:50:10;18.70;92.50
15455;DHT22;21057;51.024;7.540;2024-03-02T10:52:37;18.70;92.90
15455;DHT22;21057;51.024;7.540;2024-03-02T10:55:07;18.70;92.90
15455;DHT22;21057;51.024;7.540;2024-03-02T10:57:41;18.60;93.90
15455;DHT22;21057;51.024;7.540;2024-03-02T11:00:12;18.60;94.00
15455;DHT22;21057;51.024;7.540;2024-03-02T11:02:45;18.50;93.10
15455;DHT22;21057;51.024;7.540;2024-03-02T11:05:19;18.70;93.30
15455;DHT22;21057;51.024;7.540;2024-03-02T11:07:52;18.60;92.90
15455;DHT22;21057;51.024;7.540;2024-03-02T11:10:21;18.60;93.70
15455;DHT22;21057;51.024;7.540;2024-03-02T11:12:57;19.10;93.00
15455;DHT22;21057;51.024;7.540;2024-03-02T11:15:25;19.60;91.30
15455;DHT22;21057;51.024;7.540;2024-03-02T11:17:53;19.80;89.30
15455;DHT22;21057;51.024;7.540;2024-03-02T11:20:21;19.60;90.50
15455;DHT22;21057;51.024;7.540;2024-03-02T11:22:48;19.20;90.90
15455;DHT22;21057;51.024;7.540;2024-03-02T11:25:27;18.70;92.40
15455;DHT22;21057;51.024;7.540;2024-03-02T11:28:01;18.20;93.50
15455;DHT22;21057;51.024;7.540;2024-03-02T11:30:51;18.80;94.00
15455;DHT22;21057;51.024;7.540;2024-03-02T11:33:25;18.80;92.30
15455;DHT22;21057;51.024;7.540;2024-03-02T11:35:56;19.00;92.20
15455;DHT22;21057;51.024;7.540;2024-03-02T11:38:28;19.10;91.40
15455;DHT22;21057;51.024;7.540;2024-03-02T11:40:57;19.10;91.30
15455;DHT22;21057;51.024;7.540;2024-03-02T11:43:25;19.30;91.50
15455;DHT22;21057;51.024;7.540;2024-03-02T11:45:57;18.60;92.00
15455;DHT22;21057;51.024;7.540;2024-03-02T11:48:25;17.90;94.20
15455;DHT22;21057;51.024;7.540;2024-03-02T11:50:52;17.20;94.30
15455;DHT22;21057;51.024;7.540;2024-03-02T11:53:20;16.40;96.80
15455;DHT22;21057;51.024;7.540;2024-03-02T11:55:47;15.90;97.90
15455;DHT22;21057;51.024;7.540;2024-03-02T11:58:17;15.40;99.10
15455;DHT22;21057;51.024;7.540;2024-03-02T12:00:46;15.40;99.90
15455;DHT22;21057;51.024;7.540;2024-03-02T12:03:13;14.90;99.90
15455;DHT22;21057;51.024;7.540;2024-03-02T12:05:40;14.90;99.90
15455;DHT22;21057;51.024;7.540;2024-03-02T12:08:07;14.90;99.90
15455;DHT22;21057;51.024;7.540;2024-03-02T12:10:35;14.70;99.90
15455;DHT22;21057;51.024;7.540;2024-03-02T12:13:05;14.70;99.90
15455;DHT22;21057;51.024;7.540;2024-03-02T12:15:35;14.50;99.90
15455;DHT22;21057;51.024;7.540;2024-03-02T12:18:03;14.40;99.90
15455;DHT22;21057;51.024;7.540;2024-03-02T12:20:31;14.30;99.90
15455;DHT22;21057;51.024;7.540;2024-03-02T12:22:59;14.70;99.90
15455;DHT22;21057;51.024;7.540;2024-03-02T12:25:26;14.60;99.90
15455;DHT22;21057;51.024;7.540;2024-03-02T12:27:54;14.70;99.90
15455;DHT22;21057;51.024;7.540;2024-03-02T12:30:22;14.70;99.90
15455;DHT22;21057;51.024;7.540;2024-03-02T12:32:50;14.80;99.90
15455;DHT22;21057;51.024;7.540;2024-03-02T12:35:18;15.10;99.90
15455;DHT22;21057;51.024;7.540;2024-03-02T12:37:46;15.10;99.90
15455;DHT22;21057;51.024;7.540;2024-03-02T12:40:13;15.10;99.90
15455;DHT22;21057;51.024;7.540;2024-03-02T12:42:41;15.20;99.90
15455;DHT22;21057;51.024;7.540;2024-03-02T12:45:08;15.10;99.90
15455;DHT22;21057;51.024;7.540;2024-03-02T12:47:36;15.20;99.90
15455;DHT22;21057;51.024;7.540;2024-03-02T12:50:05;15.30;99.90
15455;DHT22;21057;51.024;7.540;2024-03-02T12:52:33;15.60;99.90
15455;DHT22;21057;51.024;7.540;2024-03-02T12:55:00;15.70;99.90
15455;DHT22;21057;51.024;7.540;2024-03-02T12:57:30;15.70;99.90
15455;DHT22;21057;51.024;7.540;2024-03-02T12:59:58;15.90;99.90
15455;DHT22;21057;51.024;7.540;2024-03-02T13:02:28;16.10;98.90
15455;DHT22;21057;51.024;7.540;2024-03-02T13:04:57;16.00;99.70
15455;DHT22;21057;51.024;7.540;2024-03-02T13:07:26;16.20;99.30
15455;DHT22;21057;51.024;7.540;2024-03-02T13:09:53;15.80;99.90
15455;DHT22;21057;51.024;7.540;2024-03-02T13:12:22;15.90;99.90
15455;DHT22;21057;51.024;7.540;2024-03-02T13:14:49;16.00;99.90
15455;DHT22;21057;51.024;7.540;2024-03-02T13:17:17;16.20;99.20
15455;DHT22;21057;51.024;7.540;2024-03-02T13:19:51;16.10;99.40
15455;DHT22;21057;51.024;7.540;2024-03-02T13:22:19;15.90;99.90
15455;DHT22;21057;51.024;7.540;2024-03-02T13:24:47;15.60;99.50
15455;DHT22;21057;51.024;7.540;2024-03-02T13:27:14;15.60;99.90
15455;DHT22;21057;51.024;7.540;2024-03-02T13:29:41;15.70;99.90
15455;DHT22;21057;51.024;7.540;2024-03-02T13:32:08;15.90;99.90
15455;DHT22;21057;51.024;7.540;2024-03-02T13:34:36;15.70;99.90
15455;DHT22;21057;51.024;7.540;2024-03-02T13:37:03;15.80;99.90
15455;DHT22;21057;51.024;7.540;2024-03-02T13:39:31;15.90;99.90
15455;DHT22;21057;51.024;7.540;2024-03-02T13:41:59;16.30;98.80
15455;DHT22;21057;51.024;7.540;2024-03-02T13:44:31;16.30;99.90
15455;DHT22;21057;51.024;7.540;2024-03-02T13:46:59;16.70;99.90
15455;DHT22;21057;51.024;7.540;2024-03-02T13:49:26;16.80;97.70
15455;DHT22;21057;51.024;7.540;2024-03-02T13:51:59;17.20;99.80
15455;DHT22;21057;51.024;7.540;2024-03-02T13:54:28;17.50;98.20
15455;DHT22;21057;51.024;7.540;2024-03-02T13:56:55;17.30;99.20
15455;DHT22;21057;51.024;7.540;2024-03-02T13:59:25;17.40;97.80
15455;DHT22;21057;51.024;7.540;2024-03-02T14:01:52;17.40;97.00
15455;DHT22;21057;51.024;7.540;2024-03-02T14:04:19;17.20;97.30
15455;DHT22;21057;51.024;7.540;2024-03-02T14:06:46;16.70;98.00
15455;DHT22;21057;51.024;7.540;2024-03-02T14:09:16;16.60;97.80
15455;DHT22;21057;51.024;7.540;2024-03-02T14:11:44;16.60;98.80
15455;DHT22;21057;51.024;7.540;2024-03-02T14:14:15;16.80;98.70
15455;DHT22;21057;51.024;7.540;2024-03-02T14:16:46;17.00;97.60
15455;DHT22;21057;51.024;7.540;2024-03-02T14:19:13;16.90;98.50
15455;DHT22;21057;51.024;7.540;2024-03-02T14:21:40;17.00;98.20
15455;DHT22;21057;51.024;7.540;2024-03-02T14:24:07;17.00;96.80
15455;DHT22;21057;51.024;7.540;2024-03-02T14:26:35;17.10;97.00
15455;DHT22;21057;51.024;7.540;2024-03-02T14:29:04;17.20;97.90
15455;DHT22;21057;51.024;7.540;2024-03-02T14:31:31;17.40;97.70
15455;DHT22;21057;51.024;7.540;2024-03-02T14:34:00;17.50;96.50
15455;DHT22;21057;51.024;7.540;2024-03-02T14:36:29;17.60;97.50
15455;DHT22;21057;51.024;7.540;2024-03-02T14:38:56;17.30;96.00
15455;DHT22;21057;51.024;7.540;2024-03-02T14:41:23;16.80;96.80
15455;DHT22;21057;51.024;7.540;2024-03-02T14:43:50;16.60;97.50
15455;DHT22;21057;51.024;7.540;2024-03-02T14:46:17;16.50;97.60
15455;DHT22;21057;51.024;7.540;2024-03-02T14:48:50;16.20;97.90
15455;DHT22;21057;51.024;7.540;2024-03-02T14:51:21;15.60;98.60
15455;DHT22;21057;51.024;7.540;2024-03-02T14:53:53;15.40;99.30
15455;DHT22;21057;51.024;7.540;2024-03-02T14:56:20;15.30;99.40
15455;DHT22;21057;51.024;7.540;2024-03-02T14:58:50;15.10;99.90
15455;DHT22;21057;51.024;7.540;2024-03-02T15:01:18;15.00;99.80
15455;DHT22;21057;51.024;7.540;2024-03-02T15:03:51;15.10;99.80
15455;DHT22;21057;51.024;7.540;2024-03-02T15:06:22;15.20;99.90
15455;DHT22;21057;51.024;7.540;2024-03-02T15:08:49;15.40;99.90
15455;DHT22;21057;51.024;7.540;2024-03-02T15:11:16;15.10;99.90
15455;DHT22;21057;51.024;7.540;2024-03-02T15:13:43;15.00;99.90
15455;DHT22;21057;51.024;7.540;2024-03-02T15:16:10;14.70;99.90
15455;DHT22;21057;51.024;7.540;2024-03-02T15:18:36;14.50;99.90
15455;DHT22;21057;51.024;7.540;2024-03-02T15:21:04;14.60;99.90
15455;DHT22;21057;51.024;7.540;2024-03-02T15:23:32;14.70;99.90
15455;DHT22;21057;51.024;7.540;2024-03-02T15:25:59;14.50;99.90
15455;DHT22;21057;51.024;7.540;2024-03-02T15:28:26;14.60;99.90
15455;DHT22;21057;51.024;7.540;2024-03-02T15:30:53;14.60;99.90
15455;DHT22;21057;51.024;7.540;2024-03-02T15:33:20;14.70;99.90
15455;DHT22;21057;51.024;7.540;2024-03-02T15:35:50;14.80;99.90
15455;DHT22;21057;51.024;7.540;2024-03-02T15:38:17;14.70;99.90
15455;DHT22;21057;51.024;7.540;2024-03-02T15:40:45;14.80;99.90
15455;DHT22;21057;51.024;7.540;2024-03-02T15:43:12;15.10;99.90
15455;DHT22;21057;51.024;7.540;2024-03-02T15:45:42;15.00;99.90